sensor_id;sensor_type;location;lat;lon;timestamp;pressure;altitude;pressure_sealevel;temperature;humidity
12051;BME280;6086;43.546;26.474;2022-07-23T00:00:34;99235.91;;;19.89;100.00
12051;BME280;6086;43.546;26.474;2022-07-23T00:03:01;99236.97;;;19.88;100.00
12051;BME280;6086;43.546;26.474;2022-07-23T00:05:29;99232.81;;;19.81;100.00
12051;BME280;6086;43.546;26.474;2022-07-23T00:07:56;99232.47;;;19.72;100.00
12051;BME280;6086;43.546;26.474;2022-07-23T00:10:23;99235.09;;;19.62;100.00
12051;BME280;6086;43.546;26.474;2022-07-23T00:12:50;99244.22;;;19.51;100.00
12051;BME280;6086;43.546;26.474;2022-07-23T00:15:18;99232.13;;;19.37;100.00
12051;BME280;6086;43.546;26.474;2022-07-23T00:17:45;99240.59;;;19.19;100.00
12051;BME280;6086;43.546;26.474;2022-07-23T00:20:12;99238.56;;;19.10;100.00
12051;BME280;6086;43.546;26.474;2022-07-23T00:22:47;99229.72;;;18.98;100.00
12051;BME280;6086;43.546;26.474;2022-07-23T00:25:14;99231.56;;;18.92;100.00
12051;BME280;6086;43.546;26.474;2022-07-23T00:27:41;99230.59;;;18.82;100.00
12051;BME280;6086;43.546;26.474;2022-07-23T00:30:09;99224.81;;;18.74;100.00
12051;BME280;6086;43.546;26.474;2022-07-23T00:32:45;99234.81;;;18.73;100.00
12051;BME280;6086;43.546;26.474;2022-07-23T00:35:12;99231.78;;;18.70;100.00
12051;BME280;6086;43.546;26.474;2022-07-23T00:37:39;99228.44;;;18.63;100.00
12051;BME280;6086;43.546;26.474;2022-07-23T00:40:09;99227.88;;;18.61;100.00
12051;BME280;6086;43.546;26.474;2022-07-23T00:42:36;99221.88;;;18.59;100.00
12051;BME280;6086;43.546;26.474;2022-07-23T00:45:04;99228.69;;;18.61;100.00
12051;BME280;6086;43.546;26.474;2022-07-23T00:47:31;99220.81;;;18.60;100.00
12051;BME280;6086;43.546;26.474;2022-07-23T00:49:59;99221.03;;;18.58;100.00
12051;BME280;6086;43.546;26.474;2022-07-23T00:52:26;99228.38;;;18.58;100.00
12051;BME280;6086;43.546;26.474;2022-07-23T00:54:53;99218.09;;;18.60;100.00
12051;BME280;6086;43.546;26.474;2022-07-23T00:57:21;99215.31;;;18.55;100.00
12051;BME280;6086;43.546;26.474;2022-07-23T00:59:48;99216.97;;;18.56;100.00
12051;BME280;6086;43.546;26.474;2022-07-23T01:02:15;99221.56;;;18.55;100.00
12051;BME280;6086;43.546;26.474;2022-07-23T01:04:42;99215.56;;;18.53;100.00
12051;BME280;6086;43.546;26.474;2022-07-23T01:07:09;99220.72;;;18.55;100.00
12051;BME280;6086;43.546;26.474;2022-07-23T01:09:36;99223.72;;;18.53;100.00
12051;BME280;6086;43.546;26.474;2022-07-23T01:12:04;99213.34;;;18.50;100.00
12051;BME280;6086;43.546;26.474;2022-07-23T01:14:33;99222.66;;;18.38;100.00
12051;BME280;6086;43.546;26.474;2022-07-23T01:17:00;99222.91;;;18.36;100.00
12051;BME280;6086;43.546;26.474;2022-07-23T01:19:27;99215.25;;;18.33;100.00
12051;BME280;6086;43.546;26.474;2022-07-23T01:21:57;99223.16;;;18.35;100.00
12051;BME280;6086;43.546;26.474;2022-07-23T01:24:27;99231.53;;;18.33;100.00
12051;BME280;6086;43.546;26.474;2022-07-23T01:26:54;99226.44;;;18.37;100.00
12051;BME280;6086;43.546;26.474;2022-07-23T01:29:21;99222.75;;;18.26;100.00
12051;BME280;6086;43.546;26.474;2022-07-23T01:31:48;99223.31;;;18.28;100.00
12051;BME280;6086;43.546;26.474;2022-07-23T01:34:15;99217.72;;;18.18;100.00
12051;BME280;6086;43.546;26.474;2022-07-23T01:36:42;99217.50;;;18.03;100.00
12051;BME280;6086;43.546;26.474;2022-07-23T01:39:09;99212.16;;;18.08;100.00
12051;BME280;6086;43.546;26.474;2022-07-23T01:41:37;99223.56;;;18.10;100.00
12051;BME280;6086;43.546;26.474;2022-07-23T01:44:04;99223.25;;;18.07;100.00
12051;BME280;6086;43.546;26.474;2022-07-23T01:46:31;99214.88;;;18.08;100.00
12051;BME280;6086;43.546;26.474;2022-07-23T01:48:58;99220.75;;;18.05;100.00
12051;BME280;6086;43.546;26.474;2022-07-23T01:51:25;99225.94;;;18.07;100.00
12051;BME280;6086;43.546;26.474;2022-07-23T01:53:52;99211.56;;;18.06;100.00
12051;BME280;6086;43.546;26.474;2022-07-23T01:56:19;99215.34;;;18.05;100.00
12051;BME280;6086;43.546;26.474;2022-07-23T01:58:47;99213.53;;;18.11;100.00
12051;BME280;6086;43.546;26.474;2022-07-23T02:01:14;99213.81;;;18.09;100.00
12051;BME280;6086;43.546;26.474;2022-07-23T02:03:41;99220.75;;;18.05;100.00
12051;BME280;6086;43.546;26.474;2022-07-23T02:06:08;99216.50;;;18.09;100.00
12051;BME280;6086;43.546;26.474;2022-07-23T02:08:35;99224.06;;;18.07;100.00
12051;BME280;6086;43.546;26.474;2022-07-23T02:11:02;99216.19;;;18.06;100.00
12051;BME280;6086;43.546;26.474;2022-07-23T02:13:29;99217.81;;;18.07;100.00
12051;BME280;6086;43.546;26.474;2022-07-23T02:15:57;99218.47;;;17.97;100.00
12051;BME280;6086;43.546;26.474;2022-07-23T02:18:37;99214.13;;;17.96;100.00
12051;BME280;6086;43.546;26.474;2022-07-23T02:21:04;99218.63;;;17.91;100.00
12051;BME280;6086;43.546;26.474;2022-07-23T02:23:31;99206.81;;;17.80;100.00
12051;BME280;6086;43.546;26.474;2022-07-23T02:25:58;99222.50;;;17.78;100.00
12051;BME280;6086;43.546;26.474;2022-07-23T02:28:25;99208.59;;;17.75;100.00
12051;BME280;6086;43.546;26.474;2022-07-23T02:30:52;99213.97;;;17.70;100.00
12051;BME280;6086;43.546;26.474;2022-07-23T02:33:20;99210.19;;;17.71;100.00
12051;BME280;6086;43.546;26.474;2022-07-23T02:35:47;99210.25;;;17.59;100.00
12051;BME280;6086;43.546;26.474;2022-07-23T02:38:14;99218.19;;;17.49;100.00
12051;BME280;6086;43.546;26.474;2022-07-23T02:40:41;99217.69;;;17.52;100.00
12051;BME280;6086;43.546;26.474;2022-07-23T02:43:08;99220.75;;;17.56;100.00
12051;BME280;6086;43.546;26.474;2022-07-23T02:45:35;99223.72;;;17.54;100.00
12051;BME280;6086;43.546;26.474;2022-07-23T02:48:02;99226.81;;;17.46;100.00
12051;BME280;6086;43.546;26.474;2022-07-23T02:50:31;99231.53;;;17.39;100.00
12051;BME280;6086;43.546;26.474;2022-07-23T02:52:57;99220.94;;;17.38;100.00
12051;BME280;6086;43.546;26.474;2022-07-23T02:55:25;99227.28;;;17.43;100.00
12051;BME280;6086;43.546;26.474;2022-07-23T02:57:52;99222.69;;;17.44;100.00
12051;BME280;6086;43.546;26.474;2022-07-23T03:00:19;99225.47;;;17.49;100.00
12051;BME280;6086;43.546;26.474;2022-07-23T03:02:45;99228.53;;;17.52;100.00
12051;BME280;6086;43.546;26.474;2022-07-23T03:05:12;99236.19;;;17.55;100.00
12051;BME280;6086;43.546;26.474;2022-07-23T03:07:42;99234.53;;;17.54;100.00
12051;BME280;6086;43.546;26.474;2022-07-23T03:10:09;99243.81;;;17.58;100.00
12051;BME280;6086;43.546;26.474;2022-07-23T03:12:36;99242.25;;;17.62;100.00
12051;BME280;6086;43.546;26.474;2022-07-23T03:15:04;99243.06;;;17.63;100.00
12051;BME280;6086;43.546;26.474;2022-07-23T03:17:31;99251.88;;;17.70;100.00
12051;BME280;6086;43.546;26.474;2022-07-23T03:19:57;99239.41;;;17.69;100.00
12051;BME280;6086;43.546;26.474;2022-07-23T03:22:24;99248.91;;;17.71;100.00
12051;BME280;6086;43.546;26.474;2022-07-23T03:24:53;99245.22;;;17.77;100.00
12051;BME280;6086;43.546;26.474;2022-07-23T03:27:20;99247.72;;;17.79;100.00
12051;BME280;6086;43.546;26.474;2022-07-23T03:29:58;99254.81;;;17.85;100.00
12051;BME280;6086;43.546;26.474;2022-07-23T03:32:26;99248.09;;;17.87;100.00
12051;BME280;6086;43.546;26.474;2022-07-23T03:34:53;99251.72;;;17.93;100.00
12051;BME280;6086;43.546;26.474;2022-07-23T03:37:20;99247.38;;;17.92;100.00
12051;BME280;6086;43.546;26.474;2022-07-23T03:39:47;99242.84;;;17.97;100.00
12051;BME280;6086;43.546;26.474;2022-07-23T03:42:15;99246.50;;;18.03;100.00
12051;BME280;6086;43.546;26.474;2022-07-23T03:44:42;99249.94;;;18.15;100.00
12051;BME280;6086;43.546;26.474;2022-07-23T03:47:09;99248.34;;;18.19;100.00
12051;BME280;6086;43.546;26.474;2022-07-23T03:49:36;99248.69;;;18.22;100.00
12051;BME280;6086;43.546;26.474;2022-07-23T03:52:03;99245.34;;;18.32;100.00
12051;BME280;6086;43.546;26.474;2022-07-23T03:54:30;99238.03;;;18.32;100.00
12051;BME280;6086;43.546;26.474;2022-07-23T03:56:57;99238.91;;;18.38;100.00
12051;BME280;6086;43.546;26.474;2022-07-23T03:59:26;99235.22;;;18.44;100.00
12051;BME280;6086;43.546;26.474;2022-07-23T04:01:52;99237.19;;;18.48;100.00
12051;BME280;6086;43.546;26.474;2022-07-23T04:04:19;99241.06;;;18.52;100.00
12051;BME280;6086;43.546;26.474;2022-07-23T04:06:46;99244.16;;;18.61;100.00
12051;BME280;6086;43.546;26.474;2022-07-23T04:09:13;99245.16;;;18.76;100.00
12051;BME280;6086;43.546;26.474;2022-07-23T04:11:40;99252.44;;;19.13;100.00
12051;BME280;6086;43.546;26.474;2022-07-23T04:14:08;99236.19;;;19.61;100.00
12051;BME280;6086;43.546;26.474;2022-07-23T04:16:36;99241.06;;;20.17;100.00
12051;BME280;6086;43.546;26.474;2022-07-23T04:19:03;99246.00;;;20.67;100.00
12051;BME280;6086;43.546;26.474;2022-07-23T04:21:30;99250.34;;;21.09;100.00
12051;BME280;6086;43.546;26.474;2022-07-23T04:23:57;99241.75;;;21.47;100.00
12051;BME280;6086;43.546;26.474;2022-07-23T04:26:24;99250.31;;;21.91;100.00
12051;BME280;6086;43.546;26.474;2022-07-23T04:28:51;99250.56;;;22.24;96.69
12051;BME280;6086;43.546;26.474;2022-07-23T04:31:18;99256.06;;;22.49;92.85
12051;BME280;6086;43.546;26.474;2022-07-23T04:33:46;99249.72;;;22.78;90.22
12051;BME280;6086;43.546;26.474;2022-07-23T04:36:13;99258.91;;;23.12;86.13
12051;BME280;6086;43.546;26.474;2022-07-23T04:38:40;99251.72;;;23.36;85.43
12051;BME280;6086;43.546;26.474;2022-07-23T04:41:07;99257.91;;;23.52;83.10
12051;BME280;6086;43.546;26.474;2022-07-23T04:43:34;99261.38;;;23.67;80.89
12051;BME280;6086;43.546;26.474;2022-07-23T04:46:01;99262.34;;;23.91;81.74
12051;BME280;6086;43.546;26.474;2022-07-23T04:48:29;99264.31;;;24.19;79.37
12051;BME280;6086;43.546;26.474;2022-07-23T04:50:57;99263.59;;;24.42;77.27
12051;BME280;6086;43.546;26.474;2022-07-23T04:53:24;99264.47;;;24.66;75.43
12051;BME280;6086;43.546;26.474;2022-07-23T04:55:51;99272.50;;;24.86;76.54
12051;BME280;6086;43.546;26.474;2022-07-23T04:58:18;99269.84;;;25.47;72.39
12051;BME280;6086;43.546;26.474;2022-07-23T05:00:45;99271.00;;;25.82;68.36
12051;BME280;6086;43.546;26.474;2022-07-23T05:03:12;99276.06;;;25.94;66.56
12051;BME280;6086;43.546;26.474;2022-07-23T05:05:39;99282.13;;;26.09;65.10
12051;BME280;6086;43.546;26.474;2022-07-23T05:08:08;99283.38;;;26.35;64.74
12051;BME280;6086;43.546;26.474;2022-07-23T05:10:35;99275.31;;;26.57;63.36
12051;BME280;6086;43.546;26.474;2022-07-23T05:13:02;99290.34;;;26.92;63.64
12051;BME280;6086;43.546;26.474;2022-07-23T05:15:28;99291.03;;;27.29;61.12
12051;BME280;6086;43.546;26.474;2022-07-23T05:17:55;99287.56;;;27.51;58.98
12051;BME280;6086;43.546;26.474;2022-07-23T05:20:22;99289.84;;;27.84;57.36
12051;BME280;6086;43.546;26.474;2022-07-23T05:22:49;99301.09;;;28.10;54.73
12051;BME280;6086;43.546;26.474;2022-07-23T05:25:18;99294.75;;;28.67;52.79
12051;BME280;6086;43.546;26.474;2022-07-23T05:27:45;99300.13;;;28.72;50.94
12051;BME280;6086;43.546;26.474;2022-07-23T05:30:15;99302.59;;;28.82;51.66
12051;BME280;6086;43.546;26.474;2022-07-23T05:32:42;99291.69;;;28.99;49.74
12051;BME280;6086;43.546;26.474;2022-07-23T05:35:09;99296.44;;;29.45;47.80
12051;BME280;6086;43.546;26.474;2022-07-23T05:37:36;99296.31;;;29.50;48.74
12051;BME280;6086;43.546;26.474;2022-07-23T05:40:04;99296.72;;;29.74;47.89
12051;BME280;6086;43.546;26.474;2022-07-23T05:42:34;99308.09;;;29.81;46.62
12051;BME280;6086;43.546;26.474;2022-07-23T05:45:01;99304.53;;;29.89;46.56
12051;BME280;6086;43.546;26.474;2022-07-23T05:47:28;99312.16;;;30.01;47.03
12051;BME280;6086;43.546;26.474;2022-07-23T05:49:55;99309.13;;;30.19;46.70
12051;BME280;6086;43.546;26.474;2022-07-23T05:52:22;99307.47;;;30.01;49.71
12051;BME280;6086;43.546;26.474;2022-07-23T05:54:48;99303.19;;;29.78;48.98
12051;BME280;6086;43.546;26.474;2022-07-23T05:57:15;99306.22;;;29.51;50.36
12051;BME280;6086;43.546;26.474;2022-07-23T05:59:44;99302.38;;;29.22;51.68
12051;BME280;6086;43.546;26.474;2022-07-23T06:02:11;99303.66;;;29.16;55.36
12051;BME280;6086;43.546;26.474;2022-07-23T06:04:37;99303.75;;;29.03;54.14
12051;BME280;6086;43.546;26.474;2022-07-23T06:07:04;99311.19;;;29.02;55.06
12051;BME280;6086;43.546;26.474;2022-07-23T06:09:31;99314.84;;;28.89;55.42
12051;BME280;6086;43.546;26.474;2022-07-23T06:11:58;99316.84;;;28.75;57.55
12051;BME280;6086;43.546;26.474;2022-07-23T06:14:25;99317.41;;;28.86;60.20
12051;BME280;6086;43.546;26.474;2022-07-23T06:16:53;99322.09;;;28.85;58.14
12051;BME280;6086;43.546;26.474;2022-07-23T06:19:20;99319.44;;;28.94;57.21
12051;BME280;6086;43.546;26.474;2022-07-23T06:21:47;99318.09;;;28.91;55.96
12051;BME280;6086;43.546;26.474;2022-07-23T06:24:14;99312.50;;;29.05;56.02
12051;BME280;6086;43.546;26.474;2022-07-23T06:26:41;99316.72;;;29.02;53.30
12051;BME280;6086;43.546;26.474;2022-07-23T06:29:08;99317.19;;;29.04;51.00
12051;BME280;6086;43.546;26.474;2022-07-23T06:31:35;99310.78;;;29.17;48.70
12051;BME280;6086;43.546;26.474;2022-07-23T06:34:03;99308.91;;;29.34;51.23
12051;BME280;6086;43.546;26.474;2022-07-23T06:36:30;99314.94;;;29.45;50.37
12051;BME280;6086;43.546;26.474;2022-07-23T06:38:57;99316.00;;;29.57;47.69
12051;BME280;6086;43.546;26.474;2022-07-23T06:41:24;99316.16;;;29.69;43.73
12051;BME280;6086;43.546;26.474;2022-07-23T06:43:51;99312.78;;;29.81;43.32
12051;BME280;6086;43.546;26.474;2022-07-23T06:46:17;99316.69;;;29.71;44.09
12051;BME280;6086;43.546;26.474;2022-07-23T06:48:44;99312.91;;;29.59;47.70
12051;BME280;6086;43.546;26.474;2022-07-23T06:51:13;99311.44;;;29.61;44.34
12051;BME280;6086;43.546;26.474;2022-07-23T06:53:39;99311.00;;;29.76;44.76
12051;BME280;6086;43.546;26.474;2022-07-23T06:56:06;99312.78;;;29.72;46.07
12051;BME280;6086;43.546;26.474;2022-07-23T06:58:33;99315.22;;;29.74;44.38
12051;BME280;6086;43.546;26.474;2022-07-23T07:01:00;99314.94;;;29.92;45.66
12051;BME280;6086;43.546;26.474;2022-07-23T07:03:27;99312.38;;;30.13;47.55
12051;BME280;6086;43.546;26.474;2022-07-23T07:05:55;99312.88;;;30.23;44.37
12051;BME280;6086;43.546;26.474;2022-07-23T07:08:24;99314.66;;;30.36;41.26
12051;BME280;6086;43.546;26.474;2022-07-23T07:10:51;99318.25;;;30.37;39.14
12051;BME280;6086;43.546;26.474;2022-07-23T07:13:18;99322.28;;;30.48;39.35
12051;BME280;6086;43.546;26.474;2022-07-23T07:15:45;99314.97;;;30.77;40.20
12051;BME280;6086;43.546;26.474;2022-07-23T07:18:12;99317.22;;;30.84;38.44
12051;BME280;6086;43.546;26.474;2022-07-23T07:20:39;99320.34;;;30.74;38.24
12051;BME280;6086;43.546;26.474;2022-07-23T07:23:05;99324.41;;;30.76;38.56
12051;BME280;6086;43.546;26.474;2022-07-23T07:25:34;99316.91;;;30.85;36.55
12051;BME280;6086;43.546;26.474;2022-07-23T07:28:02;99321.63;;;30.85;34.71
12051;BME280;6086;43.546;26.474;2022-07-23T07:30:29;99321.88;;;31.00;37.84
12051;BME280;6086;43.546;26.474;2022-07-23T07:32:56;99318.66;;;30.98;35.35
12051;BME280;6086;43.546;26.474;2022-07-23T07:35:23;99315.88;;;30.98;36.21
12051;BME280;6086;43.546;26.474;2022-07-23T07:37:50;99319.72;;;31.23;36.52
12051;BME280;6086;43.546;26.474;2022-07-23T07:40:18;99317.19;;;31.47;36.09
12051;BME280;6086;43.546;26.474;2022-07-23T07:42:47;99313.50;;;31.63;33.77
12051;BME280;6086;43.546;26.474;2022-07-23T07:45:14;99316.06;;;31.77;33.80
12051;BME280;6086;43.546;26.474;2022-07-23T07:47:42;99317.56;;;31.95;33.89
12051;BME280;6086;43.546;26.474;2022-07-23T07:50:09;99306.38;;;31.91;33.55
12051;BME280;6086;43.546;26.474;2022-07-23T07:52:36;99314.69;;;31.91;34.99
12051;BME280;6086;43.546;26.474;2022-07-23T07:55:03;99307.44;;;31.99;35.06
12051;BME280;6086;43.546;26.474;2022-07-23T07:57:31;99311.38;;;32.18;33.25
12051;BME280;6086;43.546;26.474;2022-07-23T07:59:59;99311.38;;;32.39;33.77
12051;BME280;6086;43.546;26.474;2022-07-23T08:02:26;99303.78;;;32.48;32.81
12051;BME280;6086;43.546;26.474;2022-07-23T08:04:53;99305.81;;;32.59;32.70
12051;BME280;6086;43.546;26.474;2022-07-23T08:07:22;99300.81;;;32.73;33.41
12051;BME280;6086;43.546;26.474;2022-07-23T08:09:49;99304.13;;;32.67;31.41
12051;BME280;6086;43.546;26.474;2022-07-23T08:12:16;99296.19;;;32.77;34.09
12051;BME280;6086;43.546;26.474;2022-07-23T08:14:43;99301.91;;;32.93;31.72
12051;BME280;6086;43.546;26.474;2022-07-23T08:17:12;99300.38;;;32.95;32.83
12051;BME280;6086;43.546;26.474;2022-07-23T08:19:38;99296.13;;;33.09;31.16
12051;BME280;6086;43.546;26.474;2022-07-23T08:22:05;99302.50;;;33.22;31.22
12051;BME280;6086;43.546;26.474;2022-07-23T08:24:32;99299.88;;;33.25;30.48
12051;BME280;6086;43.546;26.474;2022-07-23T08:26:59;99288.69;;;33.34;31.29
12051;BME280;6086;43.546;26.474;2022-07-23T08:29:26;99294.47;;;33.29;32.81
12051;BME280;6086;43.546;26.474;2022-07-23T08:31:53;99287.63;;;33.26;34.99
12051;BME280;6086;43.546;26.474;2022-07-23T08:34:22;99290.25;;;33.11;33.36
12051;BME280;6086;43.546;26.474;2022-07-23T08:36:49;99296.84;;;33.18;33.83
12051;BME280;6086;43.546;26.474;2022-07-23T08:39:16;99289.78;;;33.21;32.83
12051;BME280;6086;43.546;26.474;2022-07-23T08:41:43;99295.06;;;33.46;32.62
12051;BME280;6086;43.546;26.474;2022-07-23T08:44:10;99289.13;;;33.48;33.21
12051;BME280;6086;43.546;26.474;2022-07-23T08:46:38;99289.38;;;33.43;33.67
12051;BME280;6086;43.546;26.474;2022-07-23T08:49:06;99295.38;;;33.69;31.73
12051;BME280;6086;43.546;26.474;2022-07-23T08:51:34;99291.78;;;33.68;32.38
12051;BME280;6086;43.546;26.474;2022-07-23T08:54:01;99288.56;;;33.78;30.98
12051;BME280;6086;43.546;26.474;2022-07-23T08:56:29;99279.06;;;33.67;30.08
12051;BME280;6086;43.546;26.474;2022-07-23T08:58:57;99279.66;;;33.61;31.22
12051;BME280;6086;43.546;26.474;2022-07-23T09:01:24;99273.88;;;33.54;30.57
12051;BME280;6086;43.546;26.474;2022-07-23T09:03:51;99272.59;;;33.28;32.21
12051;BME280;6086;43.546;26.474;2022-07-23T09:06:18;99271.09;;;33.30;32.24
12051;BME280;6086;43.546;26.474;2022-07-23T09:08:46;99272.25;;;33.41;32.99
12051;BME280;6086;43.546;26.474;2022-07-23T09:11:16;99268.84;;;33.71;34.26
12051;BME280;6086;43.546;26.474;2022-07-23T09:13:46;99263.88;;;33.89;30.59
12051;BME280;6086;43.546;26.474;2022-07-23T09:16:14;99260.94;;;34.09;31.15
12051;BME280;6086;43.546;26.474;2022-07-23T09:19:05;99275.75;;;34.25;31.13
12051;BME280;6086;43.546;26.474;2022-07-23T09:21:34;99271.56;;;34.19;31.35
12051;BME280;6086;43.546;26.474;2022-07-23T09:24:04;99259.75;;;34.22;31.29
12051;BME280;6086;43.546;26.474;2022-07-23T09:26:34;99272.28;;;34.44;31.58
12051;BME280;6086;43.546;26.474;2022-07-23T09:29:08;99267.28;;;34.49;30.53
12051;BME280;6086;43.546;26.474;2022-07-23T09:31:44;99271.00;;;34.53;31.92
12051;BME280;6086;43.546;26.474;2022-07-23T09:34:14;99263.41;;;34.38;32.17
12051;BME280;6086;43.546;26.474;2022-07-23T09:36:41;99257.19;;;34.57;31.47
12051;BME280;6086;43.546;26.474;2022-07-23T09:39:11;99263.53;;;34.57;29.90
12051;BME280;6086;43.546;26.474;2022-07-23T09:41:41;99259.91;;;34.41;33.44
12051;BME280;6086;43.546;26.474;2022-07-23T09:44:11;99249.59;;;34.42;33.21
12051;BME280;6086;43.546;26.474;2022-07-23T09:46:38;99248.97;;;34.48;29.73
12051;BME280;6086;43.546;26.474;2022-07-23T09:49:17;99245.28;;;34.72;29.81
12051;BME280;6086;43.546;26.474;2022-07-23T09:51:49;99243.66;;;34.71;30.60
12051;BME280;6086;43.546;26.474;2022-07-23T09:54:29;99252.94;;;34.75;29.00
12051;BME280;6086;43.546;26.474;2022-07-23T09:56:59;99245.84;;;34.77;28.70
12051;BME280;6086;43.546;26.474;2022-07-23T09:59:28;99241.50;;;34.80;31.03
12051;BME280;6086;43.546;26.474;2022-07-23T10:01:57;99248.34;;;34.55;30.81
12051;BME280;6086;43.546;26.474;2022-07-23T10:04:26;99242.97;;;34.46;30.96
12051;BME280;6086;43.546;26.474;2022-07-23T10:06:55;99245.06;;;34.65;30.85
12051;BME280;6086;43.546;26.474;2022-07-23T10:09:26;99248.34;;;34.82;29.94
12051;BME280;6086;43.546;26.474;2022-07-23T10:11:58;99234.97;;;34.88;29.88
12051;BME280;6086;43.546;26.474;2022-07-23T10:14:29;99239.00;;;35.06;30.15
12051;BME280;6086;43.546;26.474;2022-07-23T10:16:58;99245.59;;;35.13;31.05
12051;BME280;6086;43.546;26.474;2022-07-23T10:19:25;99233.97;;;35.11;31.24
12051;BME280;6086;43.546;26.474;2022-07-23T10:21:57;99236.72;;;35.23;29.66
12051;BME280;6086;43.546;26.474;2022-07-23T10:24:49;99225.47;;;35.35;29.82
12051;BME280;6086;43.546;26.474;2022-07-23T10:30:16;99218.66;;;34.86;32.02
12051;BME280;6086;43.546;26.474;2022-07-23T10:32:55;99209.28;;;34.79;31.05
12051;BME280;6086;43.546;26.474;2022-07-23T10:35:33;99210.00;;;35.07;29.79
12051;BME280;6086;43.546;26.474;2022-07-23T10:38:11;99207.88;;;35.31;29.33
12051;BME280;6086;43.546;26.474;2022-07-23T10:40:53;99202.38;;;35.35;29.71
12051;BME280;6086;43.546;26.474;2022-07-23T10:43:21;99208.91;;;35.42;28.75
12051;BME280;6086;43.546;26.474;2022-07-23T10:45:49;99202.03;;;35.55;30.66
12051;BME280;6086;43.546;26.474;2022-07-23T10:48:17;99203.94;;;35.67;29.71
12051;BME280;6086;43.546;26.474;2022-07-23T10:51:07;99200.69;;;35.65;28.29
12051;BME280;6086;43.546;26.474;2022-07-23T10:53:55;99197.34;;;35.75;29.13
12051;BME280;6086;43.546;26.474;2022-07-23T10:57:03;99189.41;;;35.77;28.73
12051;BME280;6086;43.546;26.474;2022-07-23T11:02:38;99189.16;;;35.32;29.46
12051;BME280;6086;43.546;26.474;2022-07-23T11:05:08;99183.72;;;35.54;29.77
12051;BME280;6086;43.546;26.474;2022-07-23T11:07:35;99184.41;;;35.67;28.06
12051;BME280;6086;43.546;26.474;2022-07-23T11:10:03;99172.38;;;35.63;28.07
12051;BME280;6086;43.546;26.474;2022-07-23T11:12:35;99170.50;;;35.51;29.96
12051;BME280;6086;43.546;26.474;2022-07-23T11:15:07;99177.63;;;35.49;29.38
12051;BME280;6086;43.546;26.474;2022-07-23T11:17:36;99165.47;;;35.57;30.31
12051;BME280;6086;43.546;26.474;2022-07-23T11:20:27;99174.75;;;35.80;29.12
12051;BME280;6086;43.546;26.474;2022-07-23T11:22:57;99169.63;;;35.82;29.49
12051;BME280;6086;43.546;26.474;2022-07-23T11:25:35;99176.97;;;36.09;29.01
12051;BME280;6086;43.546;26.474;2022-07-23T11:28:13;99175.28;;;36.04;30.70
12051;BME280;6086;43.546;26.474;2022-07-23T11:30:42;99171.38;;;35.90;28.72
12051;BME280;6086;43.546;26.474;2022-07-23T11:33:20;99161.41;;;35.89;28.91
12051;BME280;6086;43.546;26.474;2022-07-23T11:35:51;99159.25;;;35.82;30.88
12051;BME280;6086;43.546;26.474;2022-07-23T11:38:30;99163.72;;;35.68;30.21
12051;BME280;6086;43.546;26.474;2022-07-23T11:40:58;99168.22;;;35.72;30.44
12051;BME280;6086;43.546;26.474;2022-07-23T11:43:26;99158.88;;;35.65;28.48
12051;BME280;6086;43.546;26.474;2022-07-23T11:45:57;99166.47;;;35.49;29.95
12051;BME280;6086;43.546;26.474;2022-07-23T11:48:25;99159.84;;;35.72;31.99
12051;BME280;6086;43.546;26.474;2022-07-23T11:50:53;99156.34;;;35.94;32.50
12051;BME280;6086;43.546;26.474;2022-07-23T11:53:22;99155.19;;;36.14;30.58
12051;BME280;6086;43.546;26.474;2022-07-23T11:55:49;99155.00;;;36.26;29.74
12051;BME280;6086;43.546;26.474;2022-07-23T11:58:16;99146.06;;;36.36;29.61
12051;BME280;6086;43.546;26.474;2022-07-23T12:00:45;99149.34;;;36.23;29.01
12051;BME280;6086;43.546;26.474;2022-07-23T12:03:12;99143.97;;;36.33;29.09
12051;BME280;6086;43.546;26.474;2022-07-23T12:05:39;99148.78;;;36.33;27.97
12051;BME280;6086;43.546;26.474;2022-07-23T12:08:07;99143.97;;;36.33;27.50
12051;BME280;6086;43.546;26.474;2022-07-23T12:10:36;99145.78;;;36.45;29.45
12051;BME280;6086;43.546;26.474;2022-07-23T12:13:04;99139.53;;;36.51;28.28
12051;BME280;6086;43.546;26.474;2022-07-23T12:15:36;99136.81;;;36.55;27.66
12051;BME280;6086;43.546;26.474;2022-07-23T12:18:08;99139.66;;;36.36;26.69
12051;BME280;6086;43.546;26.474;2022-07-23T12:20:38;99125.91;;;36.46;28.08
12051;BME280;6086;43.546;26.474;2022-07-23T12:23:08;99132.31;;;36.09;28.44
12051;BME280;6086;43.546;26.474;2022-07-23T12:25:37;99125.13;;;36.08;27.10
12051;BME280;6086;43.546;26.474;2022-07-23T12:28:06;99122.41;;;36.11;28.40
12051;BME280;6086;43.546;26.474;2022-07-23T12:30:37;99131.25;;;35.94;27.40
12051;BME280;6086;43.546;26.474;2022-07-23T12:33:07;99127.63;;;36.13;28.74
12051;BME280;6086;43.546;26.474;2022-07-23T12:35:39;99120.59;;;36.19;26.80
12051;BME280;6086;43.546;26.474;2022-07-23T12:38:08;99122.97;;;36.17;27.81
12051;BME280;6086;43.546;26.474;2022-07-23T12:40:37;99121.38;;;36.38;26.94
12051;BME280;6086;43.546;26.474;2022-07-23T12:43:10;99120.31;;;36.24;27.53
12051;BME280;6086;43.546;26.474;2022-07-23T12:45:48;99129.97;;;36.11;27.40
12051;BME280;6086;43.546;26.474;2022-07-23T12:48:20;99131.16;;;36.10;29.04
12051;BME280;6086;43.546;26.474;2022-07-23T12:50:53;99111.88;;;36.20;27.32
12051;BME280;6086;43.546;26.474;2022-07-23T12:53:22;99119.97;;;36.29;26.95
12051;BME280;6086;43.546;26.474;2022-07-23T12:55:53;99107.22;;;36.28;26.84
12051;BME280;6086;43.546;26.474;2022-07-23T12:58:24;99114.75;;;36.27;28.73
12051;BME280;6086;43.546;26.474;2022-07-23T13:01:09;99111.69;;;36.32;28.68
12051;BME280;6086;43.546;26.474;2022-07-23T13:03:39;99103.63;;;36.50;28.40
12051;BME280;6086;43.546;26.474;2022-07-23T13:06:08;99097.50;;;36.41;27.31
12051;BME280;6086;43.546;26.474;2022-07-23T13:08:38;99101.44;;;36.59;29.13
12051;BME280;6086;43.546;26.474;2022-07-23T13:11:06;99089.88;;;36.60;25.79